createdAt,value
2017-12-13T00:00:13.037Z,95.64
2017-12-13T00:01:13.050Z,95.45
2017-12-13T00:02:13.034Z,95.64
2017-12-13T00:03:13.012Z,95.64
2017-12-13T00:04:12.982Z,95.74
2017-12-13T00:05:12.967Z,95.64
2017-12-13T00:06:12.954Z,95.17
2017-12-13T00:07:12.949Z,95.55
2017-12-13T00:08:12.934Z,95.64
2017-12-13T00:09:12.925Z,95.45
2017-12-13T00:10:12.899Z,95.45
2017-12-13T00:11:12.906Z,95.55
2017-12-13T00:12:12.914Z,95.93
2017-12-13T00:13:12.890Z,95.74
2017-12-13T00:14:12.851Z,95.36
2017-12-13T00:15:12.970Z,95.83
2017-12-13T00:16:12.855Z,95.83
2017-12-13T00:17:12.815Z,95.36
2017-12-13T00:18:12.814Z,95.26
2017-12-13T00:19:12.780Z,95.26
2017-12-13T00:20:12.764Z,95.55
2017-12-13T00:21:12.746Z,95.36
2017-12-13T00:22:12.744Z,95.36
2017-12-13T00:23:12.720Z,95.17
2017-12-13T00:24:12.707Z,95.17
2017-12-13T00:25:12.697Z,95.26
2017-12-13T00:26:12.684Z,95.17
2017-12-13T00:27:12.668Z,95.26
2017-12-13T00:28:12.650Z,95.17
2017-12-13T00:29:12.633Z,95.36
2017-12-13T00:30:12.623Z,95.17
2017-12-13T00:31:12.606Z,95.55
2017-12-13T00:32:12.595Z,95.45
2017-12-13T00:33:12.579Z,95.36
2017-12-13T00:34:12.610Z,95.45
2017-12-13T00:35:12.564Z,95.36
2017-12-13T00:36:12.552Z,95.64
2017-12-13T00:37:12.534Z,95.55
2017-12-13T00:38:12.509Z,95.45
2017-12-13T00:39:12.508Z,95.17
2017-12-13T00:40:12.496Z,95.55
2017-12-13T00:41:12.478Z,95.36
2017-12-13T00:42:12.464Z,95.26
2017-12-13T00:43:12.442Z,94.60
2017-12-13T00:44:12.441Z,94.79
2017-12-13T00:45:12.415Z,94.70
2017-12-13T00:46:12.399Z,94.89
2017-12-13T00:47:12.385Z,94.98
2017-12-13T00:48:12.377Z,94.79
2017-12-13T00:49:12.359Z,94.79
2017-12-13T00:50:12.348Z,94.70
2017-12-13T00:51:12.327Z,95.36
2017-12-13T00:52:12.314Z,95.55
2017-12-13T00:53:12.304Z,95.36
2017-12-13T00:54:12.286Z,95.26
2017-12-13T00:55:12.273Z,95.36
2017-12-13T00:56:12.259Z,95.17
2017-12-13T00:57:12.246Z,95.45
2017-12-13T00:58:12.229Z,95.45
2017-12-13T00:59:12.216Z,95.26
2017-12-13T01:00:12.201Z,95.45
2017-12-13T01:01:12.188Z,95.36
2017-12-13T01:02:12.173Z,95.26
2017-12-13T01:03:12.159Z,95.36
2017-12-13T01:04:12.146Z,95.36
2017-12-13T01:05:12.132Z,95.36
2017-12-13T01:06:12.116Z,95.36
2017-12-13T01:07:12.106Z,95.36
2017-12-13T01:08:12.094Z,95.07
2017-12-13T01:09:12.073Z,95.36
2017-12-13T01:10:12.066Z,95.36
2017-12-13T01:11:12.045Z,95.36
2017-12-13T01:12:12.034Z,95.07
2017-12-13T01:13:12.018Z,95.36
2017-12-13T01:14:12.002Z,95.17
2017-12-13T01:15:11.990Z,95.26
2017-12-13T01:16:11.973Z,95.36
2017-12-13T01:17:11.961Z,95.55
2017-12-13T01:18:11.949Z,95.55
2017-12-13T01:19:11.933Z,95.64
2017-12-13T01:20:11.919Z,95.64
2017-12-13T01:21:11.904Z,95.64
2017-12-13T01:22:11.889Z,95.83
2017-12-13T01:23:11.876Z,95.45
2017-12-13T01:24:11.860Z,95.93
2017-12-13T01:25:11.859Z,95.36
2017-12-13T01:26:11.869Z,95.17
2017-12-13T01:27:11.818Z,95.26
2017-12-13T01:28:11.804Z,95.36
2017-12-13T01:29:11.791Z,94.98
2017-12-13T01:30:11.775Z,95.45
2017-12-13T01:31:11.762Z,95.36
2017-12-13T01:32:11.755Z,95.17
2017-12-13T01:33:11.735Z,95.36
2017-12-13T01:34:11.720Z,95.64
2017-12-13T01:35:11.707Z,95.36
2017-12-13T01:36:11.689Z,95.55
2017-12-13T01:37:11.676Z,95.45
2017-12-13T01:38:11.668Z,94.79
2017-12-13T01:39:11.646Z,94.70
2017-12-13T01:40:11.641Z,94.89
2017-12-13T01:41:11.625Z,95.07
2017-12-13T01:42:11.606Z,94.42
2017-12-13T01:43:11.591Z,94.60
2017-12-13T01:44:11.581Z,94.42
2017-12-13T01:45:11.572Z,94.60
2017-12-13T01:46:11.548Z,95.07
2017-12-13T01:47:11.534Z,94.70
2017-12-13T01:48:11.528Z,94.70
2017-12-13T01:49:11.505Z,94.70
2017-12-13T01:50:11.491Z,94.60
2017-12-13T01:51:11.476Z,94.51
2017-12-13T01:52:11.471Z,94.70
2017-12-13T01:53:11.451Z,94.60
2017-12-13T01:54:11.432Z,94.60
2017-12-13T01:55:11.420Z,94.32
2017-12-13T01:56:11.406Z,94.70
2017-12-13T01:57:11.390Z,94.32
2017-12-13T01:58:11.379Z,94.60
2017-12-13T01:59:11.361Z,95.07
2017-12-13T02:00:11.347Z,93.94
2017-12-13T02:01:11.335Z,93.85
2017-12-13T02:02:11.321Z,94.60
2017-12-13T02:03:11.307Z,94.70
2017-12-13T02:04:11.306Z,94.79
2017-12-13T02:05:11.280Z,94.60
2017-12-13T02:06:11.262Z,94.60
2017-12-13T02:07:11.249Z,94.89
2017-12-13T02:08:11.231Z,94.89
2017-12-13T02:09:13.403Z,94.89
2017-12-13T02:10:11.206Z,95.26
2017-12-13T02:11:11.190Z,95.55
2017-12-13T02:12:11.175Z,94.79
2017-12-13T02:13:11.162Z,95.07
2017-12-13T02:14:11.149Z,94.98
2017-12-13T02:15:11.133Z,95.45
2017-12-13T02:16:11.116Z,95.55
2017-12-13T02:17:11.109Z,94.79
2017-12-13T02:18:11.092Z,95.36
2017-12-13T02:19:11.075Z,95.36
2017-12-13T02:20:11.062Z,94.51
2017-12-13T02:21:11.049Z,94.89
2017-12-13T02:22:11.038Z,94.51
2017-12-13T02:23:11.018Z,94.70
2017-12-13T02:24:11.006Z,94.70
2017-12-13T02:25:10.988Z,94.79
2017-12-13T02:26:10.977Z,94.04
2017-12-13T02:27:10.983Z,94.70
2017-12-13T02:28:10.945Z,94.42
2017-12-13T02:29:10.940Z,94.70
2017-12-13T02:30:10.928Z,94.60
2017-12-13T02:31:10.903Z,95.07
2017-12-13T02:32:10.888Z,94.60
2017-12-13T02:33:10.873Z,94.60
2017-12-13T02:34:10.862Z,94.60
2017-12-13T02:35:10.847Z,94.13
2017-12-13T02:36:10.829Z,94.60
2017-12-13T02:37:10.815Z,94.79
2017-12-13T02:38:10.811Z,94.98
2017-12-13T02:39:10.786Z,94.98
2017-12-13T02:40:10.774Z,94.79
2017-12-13T02:41:10.773Z,94.51
2017-12-13T02:42:10.746Z,94.60
2017-12-13T02:43:10.750Z,94.51
2017-12-13T02:44:10.714Z,94.32
2017-12-13T02:45:10.702Z,94.89
2017-12-13T02:46:10.689Z,94.79
2017-12-13T02:47:10.672Z,94.98
2017-12-13T02:48:10.657Z,94.42
2017-12-13T02:49:10.643Z,94.89
2017-12-13T02:50:10.627Z,94.51
2017-12-13T02:51:10.614Z,94.60
2017-12-13T02:52:10.604Z,94.79
2017-12-13T02:53:10.584Z,94.51
2017-12-13T02:54:10.575Z,94.89
2017-12-13T02:55:10.557Z,93.85
2017-12-13T02:56:10.541Z,94.60
2017-12-13T02:57:10.534Z,94.42
2017-12-13T02:58:10.510Z,95.07
2017-12-13T02:59:10.496Z,94.79
2017-12-13T03:00:10.483Z,94.70
2017-12-13T03:01:10.468Z,93.94
2017-12-13T03:02:10.473Z,94.60
2017-12-13T03:03:10.438Z,94.79
2017-12-13T03:04:10.422Z,94.60
2017-12-13T03:05:10.408Z,94.70
2017-12-13T03:06:10.395Z,94.79
2017-12-13T03:07:10.379Z,94.89
2017-12-13T03:08:10.368Z,94.42
2017-12-13T03:09:10.351Z,94.60
2017-12-13T03:10:10.336Z,93.94
2017-12-13T03:11:10.326Z,94.51
2017-12-13T03:12:10.309Z,94.60
2017-12-13T03:13:10.293Z,94.79
2017-12-13T03:14:10.278Z,94.42
2017-12-13T03:15:10.266Z,94.60
2017-12-13T03:16:10.250Z,94.79
2017-12-13T03:17:10.235Z,94.79
2017-12-13T03:18:10.218Z,94.13
2017-12-13T03:19:10.208Z,94.32
2017-12-13T03:20:10.191Z,94.23
2017-12-13T03:21:10.177Z,94.13
2017-12-13T03:22:10.161Z,94.32
2017-12-13T03:23:10.145Z,94.23
2017-12-13T03:24:10.131Z,95.07
2017-12-13T03:25:10.118Z,94.60
2017-12-13T03:26:10.103Z,94.79
2017-12-13T03:27:10.088Z,94.13
2017-12-13T03:28:10.072Z,94.23
2017-12-13T03:29:10.059Z,93.94
2017-12-13T03:30:10.045Z,94.51
2017-12-13T03:31:10.034Z,94.32
2017-12-13T03:32:10.015Z,94.32
2017-12-13T03:33:10.001Z,94.13
2017-12-13T03:34:09.986Z,94.51
2017-12-13T03:35:09.976Z,94.51
2017-12-13T03:36:09.958Z,93.56
2017-12-13T03:37:09.951Z,93.47
2017-12-13T03:38:09.930Z,94.23
2017-12-13T03:39:09.917Z,93.85
2017-12-13T03:40:09.899Z,93.75
2017-12-13T03:41:09.888Z,93.28
2017-12-13T03:42:09.870Z,94.13
2017-12-13T03:43:09.865Z,93.56
2017-12-13T03:44:09.840Z,93.28
2017-12-13T03:45:09.826Z,93.94
2017-12-13T03:46:09.812Z,93.94
2017-12-13T03:47:09.797Z,93.56
2017-12-13T03:48:09.783Z,93.56
2017-12-13T03:49:09.771Z,94.04
2017-12-13T03:50:09.763Z,93.56
2017-12-13T03:51:09.740Z,93.56
2017-12-13T03:52:09.727Z,93.37
2017-12-13T03:53:09.712Z,93.56
2017-12-13T03:54:09.697Z,93.94
2017-12-13T03:55:09.683Z,93.09
2017-12-13T03:56:09.666Z,93.56
2017-12-13T03:57:09.652Z,93.56
2017-12-13T03:58:09.637Z,94.32
2017-12-13T03:59:09.623Z,93.37
2017-12-13T04:00:09.610Z,92.99
2017-12-13T04:01:09.594Z,92.99
2017-12-13T04:02:09.580Z,93.75
2017-12-13T04:03:09.565Z,93.56
2017-12-13T04:04:09.550Z,93.66
2017-12-13T04:05:09.538Z,92.80
2017-12-13T04:06:09.524Z,93.37
2017-12-13T04:07:09.508Z,92.90
2017-12-13T04:08:09.495Z,93.94
2017-12-13T04:09:09.479Z,93.75
2017-12-13T04:10:09.473Z,92.90
2017-12-13T04:11:09.452Z,93.66
2017-12-13T04:12:09.439Z,93.28
2017-12-13T04:13:09.420Z,92.99
2017-12-13T04:14:09.408Z,93.47
2017-12-13T04:15:09.390Z,93.66
2017-12-13T04:16:09.378Z,93.75
2017-12-13T04:17:09.363Z,93.37
2017-12-13T04:18:09.347Z,93.56
2017-12-13T04:19:09.407Z,93.37
2017-12-13T04:20:09.337Z,93.28
2017-12-13T04:21:09.303Z,93.75
2017-12-13T04:22:09.300Z,93.85
2017-12-13T04:23:09.276Z,93.28
2017-12-13T04:24:09.264Z,92.71
2017-12-13T04:25:09.249Z,93.56
2017-12-13T04:26:09.233Z,93.18
2017-12-13T04:27:09.225Z,93.28
2017-12-13T04:28:09.204Z,93.94
2017-12-13T04:29:09.201Z,92.99
2017-12-13T04:30:09.172Z,93.66
2017-12-13T04:31:09.158Z,92.99
2017-12-13T04:32:09.143Z,92.90
2017-12-13T04:33:09.129Z,93.28
2017-12-13T04:34:09.116Z,93.37
2017-12-13T04:35:09.103Z,93.37
2017-12-13T04:36:09.086Z,93.37
2017-12-13T04:37:09.074Z,93.75
2017-12-13T04:38:09.057Z,93.56
2017-12-13T04:39:09.052Z,93.28
2017-12-13T04:40:09.027Z,92.80
2017-12-13T04:41:09.013Z,93.56
2017-12-13T04:42:08.998Z,93.66
2017-12-13T04:43:08.993Z,92.99
2017-12-13T04:44:08.971Z,93.28
2017-12-13T04:45:08.955Z,93.94
2017-12-13T04:46:08.950Z,93.09
2017-12-13T04:47:08.927Z,93.09
2017-12-13T04:48:08.911Z,93.75
2017-12-13T04:49:08.899Z,93.75
2017-12-13T04:50:08.885Z,92.80
2017-12-13T04:51:08.870Z,94.42
2017-12-13T04:52:08.856Z,93.28
2017-12-13T04:53:08.842Z,93.56
2017-12-13T04:54:08.827Z,92.80
2017-12-13T04:55:08.812Z,92.90
2017-12-13T04:56:08.797Z,93.75
2017-12-13T04:57:08.785Z,93.37
2017-12-13T04:58:08.770Z,93.75
2017-12-13T04:59:08.756Z,93.47
2017-12-13T05:00:08.738Z,93.47
2017-12-13T05:01:08.726Z,93.56
2017-12-13T05:02:08.713Z,92.80
2017-12-13T05:03:08.697Z,93.56
2017-12-13T05:04:08.683Z,93.28
2017-12-13T05:05:08.673Z,93.28
2017-12-13T05:06:08.655Z,93.56
2017-12-13T05:07:08.646Z,92.80
2017-12-13T05:08:08.628Z,92.24
2017-12-13T05:09:08.615Z,92.80
2017-12-13T05:10:08.602Z,93.18
2017-12-13T05:11:08.585Z,93.56
2017-12-13T05:12:08.566Z,93.37
2017-12-13T05:13:08.553Z,94.04
2017-12-13T05:14:08.541Z,92.71
2017-12-13T05:15:08.525Z,92.80
2017-12-13T05:16:08.509Z,93.75
2017-12-13T05:17:08.496Z,93.75
2017-12-13T05:18:08.481Z,93.37
2017-12-13T05:19:08.468Z,93.56
2017-12-13T05:20:08.451Z,93.37
2017-12-13T05:21:08.438Z,93.18
2017-12-13T05:22:08.429Z,93.56
2017-12-13T05:23:08.409Z,93.28
2017-12-13T05:24:08.410Z,92.90
2017-12-13T05:25:08.380Z,93.47
2017-12-13T05:26:08.365Z,93.09
2017-12-13T05:27:08.396Z,92.80
2017-12-13T05:28:08.335Z,93.09
2017-12-13T05:29:08.327Z,93.37
2017-12-13T05:30:08.310Z,93.85
2017-12-13T05:31:08.293Z,93.94
2017-12-13T05:32:08.279Z,92.90
2017-12-13T05:33:08.264Z,92.99
2017-12-13T05:34:08.249Z,93.66
2017-12-13T05:35:08.234Z,93.37
2017-12-13T05:36:08.219Z,93.94
2017-12-13T05:37:08.209Z,94.04
2017-12-13T05:38:08.192Z,93.94
2017-12-13T05:39:08.175Z,92.80
2017-12-13T05:40:08.161Z,93.56
2017-12-13T05:41:08.154Z,93.75
2017-12-13T05:42:08.132Z,92.80
2017-12-13T05:43:08.130Z,93.75
2017-12-13T05:44:08.106Z,93.56
2017-12-13T05:45:08.130Z,93.56
2017-12-13T05:46:08.073Z,93.47
2017-12-13T05:47:08.059Z,93.85
2017-12-13T05:48:08.046Z,93.09
2017-12-13T05:49:08.032Z,93.37
2017-12-13T05:50:08.021Z,93.94
2017-12-13T05:51:08.000Z,93.37
2017-12-13T05:52:07.985Z,92.99
2017-12-13T05:53:08.019Z,94.13
2017-12-13T05:54:07.956Z,93.94
2017-12-13T05:55:07.942Z,93.37
2017-12-13T05:56:07.931Z,93.37
2017-12-13T05:57:07.917Z,93.37
2017-12-13T05:58:07.899Z,93.28
2017-12-13T05:59:07.885Z,93.28
2017-12-13T06:00:07.870Z,93.37
2017-12-13T06:01:07.859Z,93.28
2017-12-13T06:02:07.840Z,93.75
2017-12-13T06:03:07.827Z,93.56
2017-12-13T06:04:07.810Z,93.56
2017-12-13T06:05:07.800Z,93.47
2017-12-13T06:06:07.781Z,93.56
2017-12-13T06:07:07.767Z,93.94
2017-12-13T06:08:07.750Z,93.56
2017-12-13T06:09:07.738Z,93.28
2017-12-13T06:10:07.742Z,93.94
2017-12-13T06:11:07.712Z,93.37
2017-12-13T06:12:07.694Z,92.80
2017-12-13T06:13:07.694Z,93.94
2017-12-13T06:14:07.671Z,93.18
2017-12-13T06:15:07.649Z,93.37
2017-12-13T06:16:07.638Z,93.85
2017-12-13T06:17:07.619Z,93.56
2017-12-13T06:18:07.606Z,92.99
2017-12-13T06:19:07.590Z,93.28
2017-12-13T06:20:07.653Z,94.32
2017-12-13T06:21:07.561Z,93.66
2017-12-13T06:22:07.547Z,94.13
2017-12-13T06:23:07.533Z,93.47
2017-12-13T06:24:07.518Z,93.75
2017-12-13T06:25:07.503Z,93.37
2017-12-13T06:26:07.498Z,93.66
2017-12-13T06:27:07.475Z,93.56
2017-12-13T06:28:07.462Z,92.80
2017-12-13T06:29:07.444Z,93.66
2017-12-13T06:30:07.434Z,93.66
2017-12-13T06:31:07.415Z,93.28
2017-12-13T06:32:07.401Z,93.09
2017-12-13T06:33:07.392Z,93.37
2017-12-13T06:34:07.372Z,93.56
2017-12-13T06:35:07.358Z,92.99
2017-12-13T06:36:07.398Z,92.71
2017-12-13T06:37:07.329Z,92.80
2017-12-13T06:38:07.381Z,93.47
2017-12-13T06:39:07.301Z,93.37
2017-12-13T06:40:07.286Z,92.90
2017-12-13T06:41:07.271Z,92.52
2017-12-13T06:42:07.259Z,92.61
2017-12-13T06:43:07.242Z,93.56
2017-12-13T06:44:07.230Z,92.61
2017-12-13T06:45:07.212Z,92.90
2017-12-13T06:46:07.198Z,92.90
2017-12-13T06:47:07.192Z,92.90
2017-12-13T06:48:07.168Z,93.37
2017-12-13T06:49:07.214Z,92.71
2017-12-13T06:50:07.143Z,92.80
2017-12-13T06:51:07.126Z,92.80
2017-12-13T06:52:07.111Z,93.47
2017-12-13T06:53:07.096Z,93.28
2017-12-13T06:54:07.084Z,92.90
2017-12-13T06:55:07.069Z,93.37
2017-12-13T06:56:07.055Z,92.80
2017-12-13T06:57:07.041Z,93.75
2017-12-13T06:58:07.025Z,92.99
2017-12-13T06:59:07.012Z,92.80
2017-12-13T07:00:06.996Z,93.75
2017-12-13T07:01:06.980Z,93.09
2017-12-13T07:02:06.966Z,93.47
2017-12-13T07:03:06.952Z,92.80
2017-12-13T07:04:06.937Z,93.23
2017-12-13T07:05:06.924Z,93.75
2017-12-13T07:06:06.910Z,93.56
2017-12-13T07:07:06.894Z,92.94
2017-12-13T07:08:06.878Z,92.47
2017-12-13T07:09:06.867Z,92.94
2017-12-13T07:10:06.850Z,93.80
2017-12-13T07:11:06.837Z,93.13
2017-12-13T07:12:06.822Z,92.66
2017-12-13T07:13:06.808Z,93.04
2017-12-13T07:14:06.796Z,93.13
2017-12-13T07:15:06.782Z,93.04
2017-12-13T07:16:06.832Z,93.51
2017-12-13T07:17:06.753Z,93.04
2017-12-13T07:18:06.737Z,93.42
2017-12-13T07:19:06.725Z,92.85
2017-12-13T07:20:06.709Z,93.04
2017-12-13T07:21:06.696Z,92.85
2017-12-13T07:22:06.689Z,93.80
2017-12-13T07:23:06.665Z,92.57
2017-12-13T07:24:06.651Z,93.13
2017-12-13T07:25:06.639Z,92.94
2017-12-13T07:26:06.625Z,92.76
2017-12-13T07:27:06.615Z,92.94
2017-12-13T07:28:06.595Z,93.80
2017-12-13T07:29:06.596Z,93.80
2017-12-13T07:30:06.571Z,93.42
2017-12-13T07:31:06.554Z,93.42
2017-12-13T07:32:06.538Z,92.94
2017-12-13T07:33:06.526Z,92.94
2017-12-13T07:34:06.510Z,92.66
2017-12-13T07:35:06.504Z,93.70
2017-12-13T07:36:06.487Z,93.04
2017-12-13T07:37:06.469Z,92.85
2017-12-13T07:38:06.455Z,92.94
2017-12-13T07:39:06.443Z,93.13
2017-12-13T07:40:06.426Z,93.32
2017-12-13T07:41:06.414Z,92.85
2017-12-13T07:42:06.398Z,92.85
2017-12-13T07:43:06.399Z,93.04
2017-12-13T07:44:06.370Z,93.51
2017-12-13T07:45:06.357Z,92.29
2017-12-13T07:46:06.348Z,92.76
2017-12-13T07:47:06.335Z,92.85
2017-12-13T07:48:06.315Z,93.42
2017-12-13T07:49:06.302Z,92.85
2017-12-13T07:50:06.287Z,92.38
2017-12-13T07:51:06.275Z,93.61
2017-12-13T07:52:06.274Z,92.94
2017-12-13T07:53:06.255Z,93.23
2017-12-13T07:54:06.236Z,92.94
2017-12-13T07:55:06.233Z,92.57
2017-12-13T07:56:06.206Z,93.04
2017-12-13T07:57:06.192Z,93.04
2017-12-13T07:58:06.177Z,93.04
2017-12-13T07:59:06.166Z,93.04
2017-12-13T08:00:06.148Z,92.57
2017-12-13T08:01:06.136Z,93.42
2017-12-13T08:02:06.124Z,92.57
2017-12-13T08:03:06.114Z,92.66
2017-12-13T08:04:06.095Z,92.66
2017-12-13T08:05:06.080Z,92.85
2017-12-13T08:06:06.070Z,92.94
2017-12-13T08:07:06.075Z,93.70
2017-12-13T08:08:06.038Z,92.94
2017-12-13T08:09:06.028Z,92.38
2017-12-13T08:10:06.014Z,92.57
2017-12-13T08:11:06.003Z,92.71
2017-12-13T08:12:05.984Z,93.42
2017-12-13T08:13:05.971Z,92.33
2017-12-13T08:14:05.957Z,92.05
2017-12-13T08:15:05.945Z,93.80
2017-12-13T08:16:05.932Z,92.99
2017-12-13T08:17:05.919Z,92.71
2017-12-13T08:18:05.905Z,92.80
2017-12-13T08:19:05.898Z,93.18
2017-12-13T08:20:05.883Z,92.90
2017-12-13T08:21:05.863Z,93.94
2017-12-13T08:22:05.851Z,93.46
2017-12-13T08:23:05.839Z,92.71
2017-12-13T08:24:05.823Z,92.05
2017-12-13T08:25:05.812Z,92.33
2017-12-13T08:26:05.798Z,92.80
2017-12-13T08:27:05.784Z,92.14
2017-12-13T08:28:05.781Z,93.08
2017-12-13T08:29:05.755Z,92.99
2017-12-13T08:30:05.749Z,92.14
2017-12-13T08:31:05.747Z,92.43
2017-12-13T08:32:05.716Z,92.99
2017-12-13T08:33:05.703Z,91.76
2017-12-13T08:34:05.689Z,92.99
2017-12-13T08:35:05.677Z,92.71
2017-12-13T08:36:05.666Z,92.14
2017-12-13T08:37:05.650Z,91.76
2017-12-13T08:38:05.637Z,92.71
2017-12-13T08:39:05.632Z,92.05
2017-12-13T08:40:05.610Z,91.95
2017-12-13T08:41:05.598Z,92.14
2017-12-13T08:42:05.584Z,92.71
2017-12-13T08:43:05.576Z,92.52
2017-12-13T08:44:05.560Z,93.37
2017-12-13T08:45:05.547Z,92.71
2017-12-13T08:46:05.532Z,92.14
2017-12-13T08:47:05.521Z,92.24
2017-12-13T08:48:05.507Z,93.37
2017-12-13T08:49:05.492Z,91.76
2017-12-13T08:50:05.478Z,92.61
2017-12-13T08:51:05.473Z,92.14
2017-12-13T08:52:05.455Z,92.90
2017-12-13T08:53:05.439Z,92.71
2017-12-13T08:54:05.431Z,91.95
2017-12-13T08:55:05.413Z,92.80
2017-12-13T08:56:05.403Z,92.71
2017-12-13T08:57:05.387Z,92.52
2017-12-13T08:58:05.388Z,91.95
2017-12-13T08:59:05.361Z,92.05
2017-12-13T09:00:05.345Z,93.08
2017-12-13T09:01:05.348Z,91.95
2017-12-13T09:02:05.321Z,91.76
2017-12-13T09:03:05.309Z,92.05
2017-12-13T09:04:05.300Z,92.90
2017-12-13T09:05:05.290Z,92.14
2017-12-13T09:06:05.269Z,92.43
2017-12-13T09:07:05.257Z,92.14
2017-12-13T09:08:05.240Z,92.71
2017-12-13T09:09:05.229Z,92.14
2017-12-13T09:10:05.216Z,92.71
2017-12-13T09:11:05.203Z,92.99
2017-12-13T09:12:05.190Z,92.24
2017-12-13T09:13:05.199Z,93.56
2017-12-13T09:14:05.164Z,91.86
2017-12-13T09:15:05.152Z,91.95
2017-12-13T09:16:05.138Z,92.43
2017-12-13T09:17:05.124Z,91.76
2017-12-13T09:18:05.113Z,92.61
2017-12-13T09:19:05.100Z,91.29
2017-12-13T09:20:05.083Z,92.33
2017-12-13T09:21:05.092Z,92.71
2017-12-13T09:22:05.060Z,92.05
2017-12-13T09:23:05.048Z,91.95
2017-12-13T09:24:05.036Z,92.90
2017-12-13T09:25:05.027Z,92.99
2017-12-13T09:26:05.007Z,91.86
2017-12-13T09:27:05.003Z,92.14
2017-12-13T09:28:04.979Z,92.24
2017-12-13T09:29:04.969Z,92.90
2017-12-13T09:30:04.956Z,93.65
2017-12-13T09:31:04.952Z,92.71
2017-12-13T09:32:04.929Z,93.18
2017-12-13T09:33:04.917Z,93.08
2017-12-13T09:34:04.900Z,93.84
2017-12-13T09:35:04.904Z,92.90
2017-12-13T09:36:04.876Z,93.18
2017-12-13T09:37:04.928Z,92.90
2017-12-13T09:38:04.849Z,92.80
2017-12-13T09:39:04.843Z,93.84
2017-12-13T09:40:04.825Z,94.04
2017-12-13T09:41:04.807Z,93.37
2017-12-13T09:42:04.795Z,93.65
2017-12-13T09:43:04.784Z,92.52
2017-12-13T09:44:04.768Z,93.46
2017-12-13T09:45:04.760Z,92.90
2017-12-13T09:46:04.741Z,93.56
2017-12-13T09:47:04.728Z,92.99
2017-12-13T09:48:04.719Z,93.84
2017-12-13T09:49:04.701Z,93.18
2017-12-13T09:50:04.689Z,93.46
2017-12-13T09:51:04.679Z,93.65
2017-12-13T09:52:04.665Z,93.65
2017-12-13T09:53:04.648Z,93.75
2017-12-13T09:54:04.636Z,93.94
2017-12-13T09:55:04.623Z,93.56
2017-12-13T09:56:04.608Z,93.46
2017-12-13T09:57:04.595Z,93.37
2017-12-13T09:58:04.582Z,94.04
2017-12-13T09:59:05.069Z,94.04
2017-12-13T10:00:09.424Z,94.04
2017-12-13T10:01:06.384Z,94.13
2017-12-13T10:02:07.048Z,93.94
2017-12-13T10:03:07.206Z,93.84
2017-12-13T10:04:07.527Z,93.94
2017-12-13T10:05:06.960Z,94.23
2017-12-13T10:06:07.161Z,93.65
2017-12-13T10:07:06.927Z,93.65
2017-12-13T10:08:08.480Z,93.37
2017-12-13T10:09:05.787Z,93.75
2017-12-13T10:10:05.235Z,93.94
2017-12-13T10:11:07.458Z,93.56
2017-12-13T10:12:05.563Z,93.75
2017-12-13T10:13:04.382Z,93.27
2017-12-13T10:14:04.378Z,92.99
2017-12-13T10:15:04.487Z,93.37
2017-12-13T10:16:04.349Z,93.89
2017-12-13T10:17:04.358Z,92.38
2017-12-13T10:18:04.325Z,92.61
2017-12-13T10:19:04.311Z,93.70
2017-12-13T10:20:04.433Z,93.70
2017-12-13T10:21:04.475Z,93.42
2017-12-13T10:22:04.270Z,93.04
2017-12-13T10:23:04.259Z,92.94
2017-12-13T10:24:04.243Z,93.46
2017-12-13T10:25:04.230Z,93.46
2017-12-13T10:26:04.217Z,93.99
2017-12-13T10:27:04.208Z,93.23
2017-12-13T10:28:04.196Z,93.51
2017-12-13T10:29:04.179Z,93.89
2017-12-13T10:30:04.172Z,93.13
2017-12-13T10:31:04.158Z,92.80
2017-12-13T10:32:04.138Z,93.89
2017-12-13T10:33:04.125Z,93.32
2017-12-13T10:34:04.115Z,93.13
2017-12-13T10:35:04.100Z,93.23
2017-12-13T10:36:04.082Z,93.51
2017-12-13T10:37:04.067Z,93.89
2017-12-13T10:38:04.085Z,93.61
2017-12-13T10:39:04.048Z,93.23
2017-12-13T10:40:04.028Z,93.61
2017-12-13T10:41:04.022Z,93.80
2017-12-13T10:42:04.002Z,93.51
2017-12-13T10:43:03.990Z,93.80
2017-12-13T10:44:03.977Z,93.32
2017-12-13T10:45:03.961Z,93.56
2017-12-13T10:46:03.959Z,94.37
2017-12-13T10:47:03.938Z,94.08
2017-12-13T10:48:03.922Z,94.08
2017-12-13T10:49:03.911Z,94.13
2017-12-13T10:50:03.899Z,93.84
2017-12-13T10:51:03.884Z,93.89
2017-12-13T10:52:03.869Z,94.08
2017-12-13T10:53:03.860Z,94.08
2017-12-13T10:54:03.849Z,93.80
2017-12-13T10:55:03.870Z,93.89
2017-12-13T10:56:03.817Z,93.80
2017-12-13T10:57:03.806Z,94.74
2017-12-13T10:58:03.792Z,94.46
2017-12-13T10:59:03.779Z,94.08
2017-12-13T11:00:03.771Z,94.65
2017-12-13T11:01:03.751Z,94.93
2017-12-13T11:02:03.741Z,94.89
2017-12-13T11:03:03.725Z,94.89
2017-12-13T11:04:03.714Z,94.70
2017-12-13T11:05:03.700Z,94.74
2017-12-13T11:06:03.687Z,94.89
2017-12-13T11:07:03.674Z,94.74
2017-12-13T11:08:03.660Z,95.79
2017-12-13T11:09:03.647Z,95.60
2017-12-13T11:10:03.634Z,94.98
2017-12-13T11:11:03.620Z,94.89
2017-12-13T11:12:03.608Z,95.03
2017-12-13T11:13:03.595Z,94.89
2017-12-13T11:14:03.581Z,94.79
2017-12-13T11:15:03.568Z,94.46
2017-12-13T11:16:03.554Z,94.74
2017-12-13T11:17:03.541Z,94.46
2017-12-13T11:18:03.528Z,94.74
2017-12-13T11:19:03.560Z,95.03
2017-12-13T11:20:03.504Z,94.89
2017-12-13T11:21:03.489Z,94.70
2017-12-13T11:22:03.485Z,94.74
2017-12-13T11:23:03.464Z,94.65
2017-12-13T11:24:03.451Z,94.84
2017-12-13T11:25:03.439Z,94.93
2017-12-13T11:26:03.424Z,94.70
2017-12-13T11:27:03.412Z,94.84
2017-12-13T11:28:03.396Z,95.50
2017-12-13T11:29:03.385Z,95.50
2017-12-13T11:30:03.371Z,95.22
2017-12-13T11:31:03.358Z,95.50
2017-12-13T11:32:03.347Z,95.45
2017-12-13T11:33:03.330Z,95.79
2017-12-13T11:34:03.317Z,95.60
2017-12-13T11:35:03.306Z,95.60
2017-12-13T11:36:03.290Z,95.60
2017-12-13T11:37:03.278Z,95.50
2017-12-13T11:38:03.264Z,95.50
2017-12-13T11:39:03.254Z,95.36
2017-12-13T11:40:03.241Z,95.41
2017-12-13T11:41:03.224Z,95.41
2017-12-13T11:42:03.215Z,95.41
2017-12-13T11:43:03.200Z,95.98
2017-12-13T11:44:03.188Z,95.79
2017-12-13T11:45:03.175Z,95.64
2017-12-13T11:46:03.788Z,95.88
2017-12-13T11:47:03.146Z,96.17
2017-12-13T11:48:03.154Z,95.79
2017-12-13T11:49:03.119Z,95.93
2017-12-13T11:50:03.106Z,95.98
2017-12-13T11:51:03.110Z,95.98
2017-12-13T11:52:03.080Z,95.45
2017-12-13T11:53:03.069Z,95.79
2017-12-13T11:54:03.054Z,96.26
2017-12-13T11:55:03.043Z,96.17
2017-12-13T11:56:03.032Z,95.98
2017-12-13T11:57:03.015Z,95.50
2017-12-13T11:58:03.003Z,95.88
2017-12-13T11:59:02.992Z,95.79
2017-12-13T12:00:02.976Z,96.02
2017-12-13T12:01:02.963Z,95.64
2017-12-13T12:02:02.949Z,95.79
2017-12-13T12:03:02.939Z,95.50
2017-12-13T12:04:02.924Z,95.36
2017-12-13T12:05:02.915Z,95.45
2017-12-13T12:06:02.897Z,95.41
2017-12-13T12:07:02.887Z,95.69
2017-12-13T12:08:02.873Z,96.40
2017-12-13T12:09:02.861Z,95.64
2017-12-13T12:10:02.853Z,96.36
2017-12-13T12:11:02.833Z,96.12
2017-12-13T12:12:02.823Z,96.21
2017-12-13T12:13:02.812Z,96.02
2017-12-13T12:14:02.796Z,96.12
2017-12-13T12:15:02.780Z,96.40
2017-12-13T12:16:02.776Z,95.93
2017-12-13T12:17:02.752Z,96.59
2017-12-13T12:18:02.740Z,96.59
2017-12-13T12:19:02.727Z,96.69
2017-12-13T12:20:02.715Z,96.78
2017-12-13T12:21:02.700Z,96.59
2017-12-13T12:22:02.744Z,96.59
2017-12-13T12:23:02.675Z,96.31
2017-12-13T12:24:02.661Z,96.50
2017-12-13T12:25:02.649Z,96.59
2017-12-13T12:26:02.637Z,96.69
2017-12-13T12:27:02.636Z,96.12
2017-12-13T12:28:02.616Z,96.88
2017-12-13T12:29:02.594Z,96.69
2017-12-13T12:30:02.583Z,96.21
2017-12-13T12:31:02.575Z,96.31
2017-12-13T12:32:02.555Z,96.50
2017-12-13T12:33:02.543Z,96.55
2017-12-13T12:34:02.530Z,96.40
2017-12-13T12:35:02.517Z,96.45
2017-12-13T12:36:02.506Z,96.36
2017-12-13T12:37:02.490Z,96.45
2017-12-13T12:38:02.479Z,96.64
2017-12-13T12:39:02.463Z,96.40
2017-12-13T12:40:02.451Z,96.59
2017-12-13T12:41:02.439Z,96.69
2017-12-13T12:42:02.425Z,96.31
2017-12-13T12:43:02.410Z,96.50
2017-12-13T12:44:02.398Z,96.36
2017-12-13T12:45:02.385Z,96.59
2017-12-13T12:46:02.371Z,96.36
2017-12-13T12:47:02.360Z,95.98
2017-12-13T12:48:02.348Z,96.17
2017-12-13T12:49:02.332Z,96.17
2017-12-13T12:50:02.414Z,96.12
2017-12-13T12:51:05.082Z,96.12
2017-12-13T12:52:06.428Z,96.45